KAPN/APN METAR and TAF weather

Enter ICAO airport designator
Station Type Date Time Source
KAPN METAR 2019/10/18 06:54 UTC NOAA

KAPN 180654Z AUTO VRB03KT 10SM FEW033 03/02 A3001 RMK AO2 SLP167 T00330017


Station Type Date Time Source
KAPN Decoded METAR 2019/10/18 06:54 UTC NOAA

ALPENA COUNTY REGIONAL AIRPORT, MI, United States (KAPN) 45-05N 083-34W 210M
Oct 18, 2019 - 02:54 AM EDT / 2019.10.18 0654 UTC
Wind: Variable at 3 MPH (3 KT):0
Visibility: 10 mile(s):0
Sky conditions: mostly clear
Temperature: 37.9 F (3.3 C)
Dew Point: 35.1 F (1.7 C)
Relative Humidity: 89%
Pressure (altimeter): 30.01 in. Hg (1016 hPa)
ob: KAPN 180654Z AUTO VRB03KT 10SM FEW033 03/02 A3001 RMK AO2 SLP167 T00330017
cycle: 7

Station Type Date Time Source
KAPN TAF 2019/10/18 06:30 UTC NOAA

TAF KAPN 180527Z 1806/1906 28005KT P6SM BKN035
FM180900 VRB04KT P6SM BKN050
FM181600 VRB03KT P6SM SCT250
FM182200 14005KT P6SM FEW250

Example: see airport list